Romford, United Kingdom
Current Conditions -  °F | °C
As of 12:20 PM on Thursday 29 Jan 2015 (Local Time) from EGLC Reporting Station
Broken Clouds Broken Clouds  
Wind Chill: 34°   Ceiling: 2600
Heat Index: 43°   Visibility: 6mi
Dew Point: 30°   Wind: 20mph
Humidity: 61%   Direction: 260°W
Pressure: 29"   Gusts: NA
Location:  51.57°N, 0.18°E
Report Text: EGLC 291220Z 26017KT 9999 BKN026 06/M01 Q0982
Loading
Personal Weather Stations






























Interactive Weather Map New forecast layout! Learn more

10-Day Weather Forecast

Advertisements
Track Severe Weather on mobile